createdAt,value
2024-03-05T00:00:50.028Z,18.40
2024-03-05T00:03:16.867Z,18.38
2024-03-05T00:05:43.786Z,18.38
2024-03-05T00:08:10.591Z,18.40
2024-03-05T00:10:37.475Z,18.37
2024-03-05T00:13:04.342Z,18.37
2024-03-05T00:15:31.172Z,18.38
2024-03-05T00:17:58.016Z,18.41
2024-03-05T00:20:24.832Z,18.40
2024-03-05T00:22:52.030Z,18.39
2024-03-05T00:25:19.192Z,18.40
2024-03-05T00:27:46.234Z,18.39
2024-03-05T00:30:13.074Z,18.38
2024-03-05T00:32:39.944Z,18.39
2024-03-05T00:35:06.741Z,18.38
2024-03-05T00:37:33.613Z,18.35
2024-03-05T00:40:00.506Z,18.39
2024-03-05T00:42:27.334Z,18.36
2024-03-05T00:44:54.124Z,18.36
2024-03-05T00:47:20.921Z,18.33
2024-03-05T00:49:47.833Z,18.34
2024-03-05T00:52:14.660Z,18.36
2024-03-05T00:54:41.557Z,18.36
2024-03-05T00:57:08.348Z,18.33
2024-03-05T00:59:35.197Z,18.24
2024-03-05T01:02:02.033Z,18.24
2024-03-05T01:04:28.966Z,18.20
2024-03-05T01:06:55.871Z,18.23
2024-03-05T01:09:22.795Z,18.19
2024-03-05T01:11:49.628Z,18.19
2024-03-05T01:14:16.478Z,18.17
2024-03-05T01:16:43.357Z,18.15
2024-03-05T01:19:10.165Z,18.03
2024-03-05T01:21:36.967Z,18.08
2024-03-05T01:24:03.786Z,18.18
2024-03-05T01:26:30.578Z,18.26
2024-03-05T01:28:57.429Z,18.34
2024-03-05T01:31:24.321Z,18.40
2024-03-05T01:33:51.161Z,18.42
2024-03-05T01:36:17.968Z,18.43
2024-03-05T01:38:44.750Z,18.41
2024-03-05T01:41:11.562Z,18.42
2024-03-05T01:43:38.419Z,18.43
2024-03-05T01:46:05.227Z,18.52
2024-03-05T01:48:32.034Z,18.53
2024-03-05T01:50:58.872Z,18.55
2024-03-05T01:53:25.691Z,18.53
2024-03-05T01:55:52.576Z,18.57
2024-03-05T01:58:19.505Z,18.57
2024-03-05T02:00:46.495Z,18.57
2024-03-05T02:03:13.358Z,18.65
2024-03-05T02:05:40.210Z,18.73
2024-03-05T02:08:06.989Z,18.76
2024-03-05T02:10:33.818Z,18.78
2024-03-05T02:13:00.688Z,18.79
2024-03-05T02:15:27.513Z,18.82
2024-03-05T02:17:54.358Z,18.92
2024-03-05T02:20:21.171Z,18.95
2024-03-05T02:22:48.051Z,18.97
2024-03-05T02:25:17.551Z,19.00
2024-03-05T02:27:45.525Z,19.05
2024-03-05T02:30:12.404Z,19.10
2024-03-05T02:32:39.251Z,19.07
2024-03-05T02:35:06.100Z,19.12
2024-03-05T02:37:32.933Z,19.14
2024-03-05T02:39:59.789Z,19.13
2024-03-05T02:42:26.557Z,19.17
2024-03-05T02:44:53.375Z,19.15
2024-03-05T02:47:20.168Z,19.14
2024-03-05T02:49:46.997Z,19.15
2024-03-05T02:52:13.873Z,19.13
2024-03-05T02:54:40.666Z,19.12
2024-03-05T02:57:07.488Z,19.17
2024-03-05T02:59:34.269Z,19.17
2024-03-05T03:02:01.082Z,19.19
2024-03-05T03:04:28.052Z,19.22
2024-03-05T03:06:54.978Z,19.24
2024-03-05T03:09:21.833Z,19.28
2024-03-05T03:11:48.703Z,19.23
2024-03-05T03:14:15.521Z,19.26
2024-03-05T03:16:42.400Z,19.29
2024-03-05T03:19:09.292Z,19.29
2024-03-05T03:21:36.108Z,19.27
2024-03-05T03:24:02.914Z,19.33
2024-03-05T03:26:29.765Z,19.36
2024-03-05T03:28:56.646Z,19.37
2024-03-05T03:31:23.519Z,19.36
2024-03-05T03:33:50.419Z,19.34
2024-03-05T03:36:17.236Z,19.35
2024-03-05T03:38:44.015Z,19.37
2024-03-05T03:41:10.879Z,19.36
2024-03-05T03:43:37.677Z,19.40
2024-03-05T03:46:04.490Z,19.41
2024-03-05T03:48:31.304Z,19.41
2024-03-05T03:50:58.166Z,19.39
2024-03-05T03:53:24.969Z,19.40
2024-03-05T03:55:51.865Z,19.51
2024-03-05T03:58:18.760Z,19.50
2024-03-05T04:00:45.583Z,19.51
2024-03-05T04:03:12.385Z,19.38
2024-03-05T04:05:39.182Z,19.48
2024-03-05T04:08:06.155Z,19.49
2024-03-05T04:10:33.143Z,19.55
2024-03-05T04:13:00.004Z,19.55
2024-03-05T04:15:26.841Z,19.61
2024-03-05T04:17:53.684Z,19.65
2024-03-05T04:20:20.501Z,19.62
2024-03-05T04:22:47.354Z,19.63
2024-03-05T04:25:14.202Z,19.66
2024-03-05T04:27:41.131Z,19.66
2024-03-05T04:30:07.950Z,19.63
2024-03-05T04:32:34.919Z,19.64
2024-03-05T04:35:02.060Z,19.63
2024-03-05T04:37:29.070Z,19.64
2024-03-05T04:39:55.946Z,19.67
2024-03-05T04:42:22.735Z,19.66
2024-03-05T04:44:49.581Z,19.68
2024-03-05T04:47:16.399Z,19.63
2024-03-05T04:49:43.366Z,19.68
2024-03-05T04:52:10.203Z,19.72
2024-03-05T04:54:37.040Z,19.73
2024-03-05T04:57:03.898Z,19.75
2024-03-05T04:59:30.674Z,19.79
2024-03-05T05:01:57.534Z,19.79
2024-03-05T05:04:24.434Z,19.79
2024-03-05T05:06:51.265Z,19.75
2024-03-05T05:09:18.051Z,19.82
2024-03-05T05:11:44.859Z,19.77
2024-03-05T05:14:11.684Z,19.67
2024-03-05T05:16:38.546Z,19.71
2024-03-05T05:19:05.397Z,19.78
2024-03-05T05:21:32.178Z,19.80
2024-03-05T05:23:58.948Z,19.78
2024-03-05T05:26:25.788Z,19.79
2024-03-05T05:28:52.712Z,19.81
2024-03-05T05:31:19.582Z,19.83
2024-03-05T05:33:46.470Z,19.84
2024-03-05T05:36:13.340Z,19.84
2024-03-05T05:38:40.116Z,19.86
2024-03-05T05:41:07.019Z,19.82
2024-03-05T05:43:33.985Z,19.84
2024-03-05T05:46:00.839Z,19.87
2024-03-05T05:48:29.741Z,19.86
2024-03-05T05:50:56.985Z,19.84
2024-03-05T05:53:23.778Z,19.77
2024-03-05T05:55:50.603Z,19.73
2024-03-05T05:58:17.404Z,19.70
2024-03-05T06:00:44.193Z,19.62
2024-03-05T06:03:10.967Z,19.49
2024-03-05T06:05:37.842Z,19.74
2024-03-05T06:08:04.949Z,19.64
2024-03-05T06:10:32.034Z,19.63
2024-03-05T06:13:00.046Z,19.47
2024-03-05T06:15:26.862Z,19.76
2024-03-05T06:17:53.761Z,19.81
2024-03-05T06:20:20.819Z,19.77
2024-03-05T06:22:47.741Z,19.73
2024-03-05T06:25:14.729Z,19.70
2024-03-05T06:27:41.553Z,19.68
2024-03-05T06:30:08.380Z,19.68
2024-03-05T06:32:35.256Z,19.68
2024-03-05T06:35:02.142Z,19.66
2024-03-05T06:37:29.034Z,19.62
2024-03-05T06:39:55.836Z,19.64
2024-03-05T06:42:22.603Z,19.62
2024-03-05T06:44:49.432Z,19.58
2024-03-05T06:47:16.245Z,19.59
2024-03-05T06:49:43.096Z,19.62
2024-03-05T06:52:09.950Z,19.64
2024-03-05T06:54:36.784Z,19.66
2024-03-05T06:57:03.618Z,19.66
2024-03-05T06:59:30.416Z,19.64
2024-03-05T07:01:57.322Z,19.70
2024-03-05T07:04:24.229Z,19.68
2024-03-05T07:06:51.055Z,19.69
2024-03-05T07:09:17.913Z,19.74
2024-03-05T07:11:44.759Z,19.70
2024-03-05T07:14:11.719Z,19.71
2024-03-05T07:16:38.581Z,19.74
2024-03-05T07:19:05.383Z,19.75
2024-03-05T07:21:32.209Z,19.77
2024-03-05T07:23:58.984Z,19.82
2024-03-05T07:26:25.834Z,19.81
2024-03-05T07:28:52.633Z,19.80
2024-03-05T07:31:20.070Z,19.79
2024-03-05T07:33:49.964Z,19.77
2024-03-05T07:36:19.572Z,19.74
2024-03-05T07:38:46.427Z,19.74
2024-03-05T07:41:21.558Z,19.77
2024-03-05T07:43:53.718Z,19.81
2024-03-05T07:46:20.713Z,19.77
2024-03-05T07:48:47.619Z,19.80
2024-03-05T07:51:21.411Z,19.80
2024-03-05T07:53:51.837Z,19.82
2024-03-05T07:56:18.831Z,19.85
2024-03-05T07:58:45.831Z,19.85
2024-03-05T08:01:12.860Z,19.87
2024-03-05T08:03:39.776Z,19.86
2024-03-05T08:06:06.621Z,19.85
2024-03-05T08:08:33.418Z,19.84
2024-03-05T08:11:00.277Z,19.81
2024-03-05T08:13:27.210Z,19.83
2024-03-05T08:15:54.067Z,19.84
2024-03-05T08:18:20.928Z,19.82
2024-03-05T08:20:47.784Z,19.80
2024-03-05T08:23:14.646Z,19.83
2024-03-05T08:25:42.720Z,19.84
2024-03-05T08:28:10.591Z,19.85
2024-03-05T08:30:37.381Z,19.87
2024-03-05T08:33:04.296Z,19.87
2024-03-05T08:35:31.286Z,19.86
2024-03-05T08:37:58.222Z,19.91
2024-03-05T08:40:25.143Z,19.89
2024-03-05T08:42:51.966Z,19.90
2024-03-05T08:45:18.821Z,19.89
2024-03-05T08:47:45.642Z,19.88
2024-03-05T08:50:12.475Z,19.84
2024-03-05T08:52:39.356Z,19.87
2024-03-05T08:55:06.177Z,19.89
2024-03-05T08:57:32.953Z,19.86
2024-03-05T09:00:00.900Z,19.89
2024-03-05T09:02:29.950Z,19.87
2024-03-05T09:04:56.794Z,19.88
2024-03-05T09:07:23.664Z,19.84
2024-03-05T09:09:50.465Z,19.81
2024-03-05T09:12:17.256Z,19.83
2024-03-05T09:14:44.365Z,19.87
2024-03-05T09:17:11.271Z,19.86
2024-03-05T09:19:38.184Z,19.89
2024-03-05T09:22:05.000Z,19.90
2024-03-05T09:24:31.842Z,19.89
2024-03-05T09:26:58.646Z,19.87
2024-03-05T09:29:25.436Z,19.82
2024-03-05T09:31:52.233Z,19.83
2024-03-05T09:34:19.053Z,19.80
2024-03-05T09:36:45.880Z,19.79
2024-03-05T09:39:12.659Z,19.86
2024-03-05T09:41:39.451Z,19.82
2024-03-05T09:44:06.331Z,19.84
2024-03-05T09:46:33.172Z,19.78
2024-03-05T09:49:07.413Z,19.71
2024-03-05T09:51:38.175Z,19.65
2024-03-05T09:54:05.042Z,19.59
2024-03-05T09:56:34.713Z,19.58
2024-03-05T09:59:03.021Z,19.58
2024-03-05T10:01:29.858Z,19.58
2024-03-05T10:03:56.681Z,19.51
2024-03-05T10:06:23.458Z,19.50
2024-03-05T10:08:50.272Z,19.49
2024-03-05T10:11:17.220Z,19.47
2024-03-05T10:13:44.244Z,19.48
2024-03-05T10:16:11.094Z,19.47
2024-03-05T10:18:37.887Z,19.45
2024-03-05T10:21:04.740Z,19.41
2024-03-05T10:23:31.553Z,19.44
2024-03-05T10:25:58.386Z,19.40
2024-03-05T10:28:25.237Z,19.41
2024-03-05T10:30:52.128Z,19.33
2024-03-05T10:33:18.909Z,19.38
2024-03-05T10:35:45.736Z,19.34
2024-03-05T10:38:12.558Z,19.34
2024-03-05T10:40:39.854Z,19.27
2024-03-05T10:43:06.779Z,19.29
2024-03-05T10:45:34.172Z,19.32
2024-03-05T10:48:01.032Z,19.32
2024-03-05T10:50:27.995Z,19.29
2024-03-05T10:52:54.876Z,19.22
2024-03-05T10:55:21.724Z,19.18
2024-03-05T10:57:48.519Z,19.19
2024-03-05T11:00:15.342Z,19.17
2024-03-05T11:02:42.169Z,19.15
2024-03-05T11:05:09.118Z,19.13
2024-03-05T11:07:36.044Z,19.14
2024-03-05T11:10:02.915Z,19.15
2024-03-05T11:12:29.714Z,19.07
2024-03-05T11:14:56.931Z,19.05
2024-03-05T11:17:23.938Z,19.06
2024-03-05T11:19:50.785Z,19.11
2024-03-05T11:22:17.708Z,19.10
2024-03-05T11:24:44.525Z,19.16
2024-03-05T11:27:11.367Z,19.17
2024-03-05T11:29:38.258Z,19.15
2024-03-05T11:32:05.253Z,19.17
2024-03-05T11:34:32.153Z,19.13
2024-03-05T11:36:58.999Z,19.16
2024-03-05T11:39:25.818Z,19.17
2024-03-05T11:41:52.616Z,19.13
2024-03-05T11:44:19.459Z,19.14
2024-03-05T11:46:46.483Z,19.09
2024-03-05T11:49:13.394Z,19.16
2024-03-05T11:51:40.186Z,19.10
2024-03-05T11:54:06.999Z,19.13
2024-03-05T11:56:33.844Z,19.11
2024-03-05T11:59:00.732Z,19.16
2024-03-05T12:01:27.614Z,19.09
2024-03-05T12:03:54.483Z,19.10
2024-03-05T12:06:21.336Z,19.14
2024-03-05T12:08:48.179Z,19.17
2024-03-05T12:11:15.163Z,19.21
2024-03-05T12:13:42.060Z,19.21
2024-03-05T12:16:08.878Z,19.29
2024-03-05T12:18:35.676Z,19.34
2024-03-05T12:21:02.513Z,19.36
2024-03-05T12:23:41.267Z,19.38
2024-03-05T12:26:10.086Z,19.41
2024-03-05T12:28:37.026Z,19.45
2024-03-05T12:31:03.864Z,19.51
2024-03-05T12:33:30.657Z,19.55
2024-03-05T12:35:57.442Z,19.60
2024-03-05T12:38:24.332Z,19.63
2024-03-05T12:40:51.200Z,19.68
2024-03-05T12:43:18.024Z,19.65
2024-03-05T12:45:44.866Z,19.67
2024-03-05T12:48:11.692Z,19.74
2024-03-05T12:50:38.532Z,19.77
2024-03-05T12:53:05.422Z,19.83
2024-03-05T12:55:32.261Z,19.87
2024-03-05T12:57:59.071Z,19.89
2024-03-05T13:00:25.871Z,19.93
2024-03-05T13:02:52.688Z,19.89
2024-03-05T13:05:19.601Z,19.89
2024-03-05T13:07:46.513Z,19.91
2024-03-05T13:10:13.336Z,19.88
2024-03-05T13:12:40.486Z,19.86
2024-03-05T13:15:07.693Z,19.79
2024-03-05T13:17:34.572Z,19.78
2024-03-05T13:20:01.513Z,19.81
2024-03-05T13:22:28.335Z,19.80
2024-03-05T13:24:55.182Z,19.91
2024-03-05T13:27:22.011Z,19.98
2024-03-05T13:29:53.380Z,20.04
2024-03-05T13:32:20.403Z,20.10
2024-03-05T13:34:47.283Z,20.11
2024-03-05T13:37:14.118Z,20.14
2024-03-05T13:39:40.940Z,20.19
2024-03-05T13:42:07.772Z,20.21
2024-03-05T13:44:34.637Z,20.20
2024-03-05T13:47:01.483Z,20.21
2024-03-05T13:49:28.339Z,19.94
2024-03-05T13:51:55.299Z,19.99
2024-03-05T13:54:22.595Z,19.98
2024-03-05T13:56:49.718Z,20.02
2024-03-05T13:59:16.555Z,20.15
2024-03-05T14:01:43.494Z,20.19
2024-03-05T14:04:10.392Z,20.30
2024-03-05T14:06:37.187Z,20.27
2024-03-05T14:09:04.029Z,20.33
2024-03-05T14:11:30.973Z,20.33
2024-03-05T14:13:57.834Z,20.36
2024-03-05T14:16:24.800Z,20.39
2024-03-05T14:18:51.673Z,20.44
2024-03-05T14:21:18.484Z,20.44
2024-03-05T14:23:45.315Z,20.44
2024-03-05T14:26:12.169Z,20.45
2024-03-05T14:28:39.033Z,20.40
2024-03-05T14:31:05.869Z,20.34
2024-03-05T14:33:32.767Z,20.34
2024-03-05T14:35:59.586Z,20.30
2024-03-05T14:38:26.405Z,20.22
2024-03-05T14:40:53.253Z,20.21
2024-03-05T14:43:20.115Z,20.21
2024-03-05T14:45:46.977Z,20.23
2024-03-05T14:48:13.812Z,20.27
2024-03-05T14:50:40.641Z,20.27
2024-03-05T14:53:07.655Z,20.28
2024-03-05T14:55:34.574Z,20.30
2024-03-05T14:58:01.430Z,20.31
2024-03-05T15:00:28.225Z,20.35
2024-03-05T15:02:55.121Z,20.38
2024-03-05T15:05:22.101Z,20.47
2024-03-05T15:07:49.064Z,20.47
2024-03-05T15:10:15.915Z,20.52
2024-03-05T15:12:42.733Z,20.54
2024-03-05T15:15:09.612Z,20.51
2024-03-05T15:17:36.457Z,20.48
2024-03-05T15:20:03.448Z,20.45
2024-03-05T15:22:30.311Z,20.46
2024-03-05T15:24:57.160Z,20.53
2024-03-05T15:27:24.193Z,20.57
2024-03-05T15:29:51.069Z,20.56
2024-03-05T15:32:17.945Z,20.53
2024-03-05T15:34:44.827Z,20.55
2024-03-05T15:37:11.634Z,20.54
2024-03-05T15:39:38.520Z,20.55
2024-03-05T15:42:05.362Z,20.57
2024-03-05T15:44:32.187Z,20.55
2024-03-05T15:46:59.011Z,20.52
2024-03-05T15:49:25.840Z,20.51
2024-03-05T15:51:52.722Z,20.50
2024-03-05T15:54:19.530Z,20.48
2024-03-05T15:56:46.541Z,20.48
2024-03-05T15:59:13.669Z,20.49
2024-03-05T16:01:40.658Z,20.49
2024-03-05T16:04:16.016Z,20.48
2024-03-05T16:06:54.341Z,20.50
2024-03-05T16:09:21.186Z,20.49
2024-03-05T16:11:48.157Z,20.53
2024-03-05T16:14:15.045Z,20.60
2024-03-05T16:16:41.890Z,20.62
2024-03-05T16:19:08.766Z,20.60
2024-03-05T16:21:35.575Z,20.58
2024-03-05T16:24:02.374Z,20.58
2024-03-05T16:26:29.161Z,20.54
2024-03-05T16:28:56.079Z,20.47
2024-03-05T16:31:23.065Z,20.46
2024-03-05T16:33:49.984Z,20.42
2024-03-05T16:36:16.963Z,20.41
2024-03-05T16:38:43.934Z,20.39
2024-03-05T16:41:10.887Z,20.38
2024-03-05T16:43:37.757Z,20.37
2024-03-05T16:46:04.568Z,20.41
2024-03-05T16:48:31.390Z,20.39
2024-03-05T16:50:58.185Z,20.37
2024-03-05T16:53:25.106Z,20.32
2024-03-05T16:55:51.930Z,20.30
2024-03-05T16:58:19.745Z,20.28
2024-03-05T17:00:46.886Z,20.28
2024-03-05T17:03:13.692Z,20.17
2024-03-05T17:05:40.520Z,20.19
2024-03-05T17:08:07.506Z,20.10
2024-03-05T17:10:34.550Z,20.12
2024-03-05T17:13:01.362Z,20.10
2024-03-05T17:15:28.234Z,20.10
2024-03-05T17:18:00.285Z,20.12
2024-03-05T17:20:31.335Z,20.07
2024-03-05T17:22:58.242Z,20.06
2024-03-05T17:25:25.129Z,20.06
2024-03-05T17:27:51.959Z,20.03
2024-03-05T17:30:18.780Z,20.03
2024-03-05T17:32:45.639Z,20.01
2024-03-05T17:35:12.528Z,19.98
2024-03-05T17:37:39.391Z,19.93
2024-03-05T17:40:06.217Z,19.91
2024-03-05T17:42:33.005Z,19.96
2024-03-05T17:44:59.796Z,19.87
2024-03-05T17:47:26.611Z,19.86
2024-03-05T17:49:53.465Z,19.83
2024-03-05T17:52:20.310Z,19.89
2024-03-05T17:54:47.140Z,19.85
2024-03-05T17:57:13.946Z,19.80
2024-03-05T17:59:40.762Z,19.75
2024-03-05T18:02:07.645Z,19.78
2024-03-05T18:04:34.527Z,19.69
2024-03-05T18:07:01.393Z,19.72
2024-03-05T18:09:28.226Z,19.71
2024-03-05T18:11:55.089Z,19.68
2024-03-05T18:14:21.951Z,19.67
2024-03-05T18:16:48.813Z,19.66
2024-03-05T18:19:15.608Z,19.60
2024-03-05T18:21:42.414Z,19.60
2024-03-05T18:24:09.249Z,19.58
2024-03-05T18:26:36.065Z,19.59
2024-03-05T18:29:02.916Z,19.58
2024-03-05T18:31:29.822Z,19.54
2024-03-05T18:33:56.721Z,19.50
2024-03-05T18:36:23.543Z,19.43
2024-03-05T18:38:50.332Z,19.40
2024-03-05T18:41:17.142Z,19.42
2024-03-05T18:43:44.005Z,19.37
2024-03-05T18:46:10.959Z,19.38
2024-03-05T18:48:37.928Z,19.35
2024-03-05T18:51:04.920Z,19.32
2024-03-05T18:53:39.478Z,19.34
2024-03-05T18:56:10.619Z,19.34
2024-03-05T18:58:37.601Z,19.29
2024-03-05T19:01:04.564Z,19.31
2024-03-05T19:03:31.426Z,19.29
2024-03-05T19:05:58.224Z,19.27
2024-03-05T19:08:25.171Z,19.29
2024-03-05T19:10:52.207Z,19.32
2024-03-05T19:13:19.044Z,19.16
2024-03-05T19:15:45.895Z,19.14
2024-03-05T19:18:15.890Z,19.06
2024-03-05T19:20:43.144Z,19.40
2024-03-05T19:23:10.121Z,19.37
2024-03-05T19:25:37.278Z,19.46
2024-03-05T19:28:04.167Z,19.43
2024-03-05T19:30:30.980Z,19.38
2024-03-05T19:32:57.947Z,19.22
2024-03-05T19:35:24.831Z,19.17
2024-03-05T19:37:51.771Z,19.23
2024-03-05T19:40:19.120Z,19.26
2024-03-05T19:42:46.412Z,19.27
2024-03-05T19:45:13.586Z,19.28
2024-03-05T19:47:40.733Z,19.35
2024-03-05T19:50:08.005Z,19.33
2024-03-05T19:52:35.058Z,19.28
2024-03-05T19:55:02.040Z,19.31
2024-03-05T19:57:28.855Z,19.32
2024-03-05T19:59:56.889Z,19.33
2024-03-05T20:02:25.250Z,19.35
2024-03-05T20:04:52.261Z,19.35
2024-03-05T20:07:19.285Z,19.47
2024-03-05T20:09:46.089Z,19.48
2024-03-05T20:12:13.265Z,19.43
2024-03-05T20:14:40.246Z,19.64
2024-03-05T20:17:07.287Z,19.62
2024-03-05T20:19:34.192Z,19.46
2024-03-05T20:22:00.993Z,19.39
2024-03-05T20:24:27.848Z,19.39
2024-03-05T20:26:54.654Z,19.31
2024-03-05T20:29:21.481Z,19.27
2024-03-05T20:31:48.394Z,19.26
2024-03-05T20:34:15.287Z,19.17
2024-03-05T20:36:42.162Z,19.17
2024-03-05T20:39:08.988Z,19.15
2024-03-05T20:41:35.875Z,19.33
2024-03-05T20:44:02.852Z,19.29
2024-03-05T20:46:29.716Z,19.29
2024-03-05T20:48:56.515Z,19.29
2024-03-05T20:51:23.349Z,19.24
2024-03-05T20:53:50.130Z,19.30
2024-03-05T20:56:17.039Z,19.28
2024-03-05T20:58:43.928Z,19.23
2024-03-05T21:01:10.923Z,19.24
2024-03-05T21:03:37.782Z,19.19
2024-03-05T21:06:04.568Z,19.23
2024-03-05T21:08:31.420Z,19.22
2024-03-05T21:10:58.402Z,19.14
2024-03-05T21:13:25.302Z,19.13
2024-03-05T21:15:52.112Z,19.05
2024-03-05T21:18:19.010Z,19.07
2024-03-05T21:20:45.892Z,18.97
2024-03-05T21:23:16.069Z,18.94
2024-03-05T21:25:56.465Z,18.94
2024-03-05T21:28:31.601Z,18.92
2024-03-05T21:30:58.460Z,18.90
2024-03-05T21:33:25.325Z,18.88
2024-03-05T21:35:52.122Z,18.85
2024-03-05T21:38:18.944Z,18.85
2024-03-05T21:40:45.823Z,18.79
2024-03-05T21:43:12.746Z,18.88
2024-03-05T21:45:39.572Z,18.84
2024-03-05T21:48:06.398Z,18.88
2024-03-05T21:50:33.303Z,18.82
2024-03-05T21:53:00.146Z,18.82
2024-03-05T21:55:26.937Z,18.80
2024-03-05T21:57:53.726Z,18.79
2024-03-05T22:00:20.514Z,18.77
2024-03-05T22:02:47.366Z,18.74
2024-03-05T22:05:14.282Z,18.77
2024-03-05T22:07:41.185Z,18.59
2024-03-05T22:10:08.025Z,18.53
2024-03-05T22:12:34.834Z,18.44
2024-03-05T22:15:03.287Z,18.40
2024-03-05T22:17:30.181Z,18.34
2024-03-05T22:19:57.092Z,18.38
2024-03-05T22:22:23.929Z,18.30
2024-03-05T22:24:50.774Z,18.29
2024-03-05T22:27:17.583Z,18.29
2024-03-05T22:29:44.417Z,18.26
2024-03-05T22:32:11.277Z,18.21
2024-03-05T22:34:38.226Z,18.22
2024-03-05T22:37:05.077Z,18.21
2024-03-05T22:39:31.936Z,18.18
2024-03-05T22:41:58.774Z,18.26
2024-03-05T22:44:25.554Z,18.28
2024-03-05T22:46:52.375Z,18.32
2024-03-05T22:49:19.174Z,18.31
2024-03-05T22:51:46.005Z,18.29
2024-03-05T22:54:12.800Z,18.30
2024-03-05T22:56:39.625Z,18.31
2024-03-05T22:59:06.560Z,18.32
2024-03-05T23:01:33.504Z,18.28
2024-03-05T23:04:00.331Z,18.27
2024-03-05T23:06:27.153Z,18.26
2024-03-05T23:08:53.981Z,18.25
2024-03-05T23:11:20.843Z,18.21
2024-03-05T23:13:47.739Z,18.20
2024-03-05T23:16:14.747Z,18.22
2024-03-05T23:18:41.590Z,18.23
2024-03-05T23:21:08.406Z,18.21
2024-03-05T23:23:35.207Z,18.15
2024-03-05T23:26:02.098Z,18.15
2024-03-05T23:28:28.957Z,18.17
2024-03-05T23:30:55.785Z,18.23
2024-03-05T23:33:22.712Z,18.20
2024-03-05T23:35:49.539Z,18.10
2024-03-05T23:38:16.350Z,18.15
2024-03-05T23:40:43.175Z,18.18
2024-03-05T23:43:09.983Z,18.18
2024-03-05T23:45:36.803Z,18.23
2024-03-05T23:48:06.112Z,18.22
2024-03-05T23:50:34.931Z,18.14
2024-03-05T23:53:01.821Z,18.13
2024-03-05T23:55:28.667Z,18.10
2024-03-05T23:57:55.493Z,18.01
